sensor_id;sensor_type;location;lat;lon;timestamp;P1;durP1;ratioP1;P2;durP2;ratioP2
53959;SDS011;39866;48.638;-2.020;2023-10-08T00:01:18;5.60;;;4.93;;
53959;SDS011;39866;48.638;-2.020;2023-10-08T00:03:48;7.50;;;4.63;;
53959;SDS011;39866;48.638;-2.020;2023-10-08T00:06:23;7.13;;;4.88;;
53959;SDS011;39866;48.638;-2.020;2023-10-08T00:08:49;6.13;;;5.13;;
53959;SDS011;39866;48.638;-2.020;2023-10-08T00:11:14;7.05;;;4.82;;
53959;SDS011;39866;48.638;-2.020;2023-10-08T00:13:42;5.93;;;5.00;;
53959;SDS011;39866;48.638;-2.020;2023-10-08T00:16:09;7.50;;;5.03;;
53959;SDS011;39866;48.638;-2.020;2023-10-08T00:18:36;6.03;;;4.80;;
53959;SDS011;39866;48.638;-2.020;2023-10-08T00:21:03;7.20;;;5.07;;
53959;SDS011;39866;48.638;-2.020;2023-10-08T00:23:32;7.50;;;5.35;;
53959;SDS011;39866;48.638;-2.020;2023-10-08T00:26:00;7.60;;;4.85;;
53959;SDS011;39866;48.638;-2.020;2023-10-08T00:28:29;5.63;;;5.00;;
53959;SDS011;39866;48.638;-2.020;2023-10-08T00:30:56;6.72;;;4.82;;
53959;SDS011;39866;48.638;-2.020;2023-10-08T00:33:22;6.53;;;4.90;;
53959;SDS011;39866;48.638;-2.020;2023-10-08T00:35:47;7.53;;;5.00;;
53959;SDS011;39866;48.638;-2.020;2023-10-08T00:38:13;6.95;;;5.60;;
53959;SDS011;39866;48.638;-2.020;2023-10-08T00:40:45;6.10;;;5.03;;
53959;SDS011;39866;48.638;-2.020;2023-10-08T00:46:00;6.65;;;5.20;;
53959;SDS011;39866;48.638;-2.020;2023-10-08T00:48:48;7.93;;;5.38;;
53959;SDS011;39866;48.638;-2.020;2023-10-08T00:51:14;7.05;;;5.28;;
53959;SDS011;39866;48.638;-2.020;2023-10-08T00:53:59;6.65;;;4.75;;
53959;SDS011;39866;48.638;-2.020;2023-10-08T00:56:31;7.05;;;5.20;;
53959;SDS011;39866;48.638;-2.020;2023-10-08T00:59:15;7.25;;;5.05;;
53959;SDS011;39866;48.638;-2.020;2023-10-08T01:01:44;7.07;;;5.70;;
53959;SDS011;39866;48.638;-2.020;2023-10-08T01:04:20;7.45;;;5.10;;
53959;SDS011;39866;48.638;-2.020;2023-10-08T01:06:53;8.52;;;5.20;;
53959;SDS011;39866;48.638;-2.020;2023-10-08T01:09:27;7.32;;;5.32;;
53959;SDS011;39866;48.638;-2.020;2023-10-08T01:12:09;6.32;;;5.00;;
53959;SDS011;39866;48.638;-2.020;2023-10-08T01:14:47;7.57;;;5.18;;
53959;SDS011;39866;48.638;-2.020;2023-10-08T01:17:14;9.70;;;5.50;;
53959;SDS011;39866;48.638;-2.020;2023-10-08T01:19:41;6.35;;;5.43;;
53959;SDS011;39866;48.638;-2.020;2023-10-08T01:22:10;6.57;;;5.03;;
53959;SDS011;39866;48.638;-2.020;2023-10-08T01:24:42;9.48;;;5.60;;
53959;SDS011;39866;48.638;-2.020;2023-10-08T01:27:08;6.80;;;5.53;;
53959;SDS011;39866;48.638;-2.020;2023-10-08T01:29:36;6.93;;;5.20;;
53959;SDS011;39866;48.638;-2.020;2023-10-08T01:32:03;6.35;;;5.20;;
53959;SDS011;39866;48.638;-2.020;2023-10-08T01:34:34;8.13;;;5.22;;
53959;SDS011;39866;48.638;-2.020;2023-10-08T01:37:01;7.82;;;5.22;;
53959;SDS011;39866;48.638;-2.020;2023-10-08T01:39:33;6.85;;;5.07;;
53959;SDS011;39866;48.638;-2.020;2023-10-08T01:41:59;5.82;;;4.80;;
53959;SDS011;39866;48.638;-2.020;2023-10-08T01:44:24;8.18;;;5.07;;
53959;SDS011;39866;48.638;-2.020;2023-10-08T01:46:49;7.03;;;4.88;;
53959;SDS011;39866;48.638;-2.020;2023-10-08T01:49:15;6.35;;;5.13;;
53959;SDS011;39866;48.638;-2.020;2023-10-08T01:51:41;8.00;;;5.00;;
53959;SDS011;39866;48.638;-2.020;2023-10-08T01:54:12;6.93;;;5.35;;
53959;SDS011;39866;48.638;-2.020;2023-10-08T01:56:40;7.32;;;5.10;;
53959;SDS011;39866;48.638;-2.020;2023-10-08T01:59:10;7.65;;;5.00;;
53959;SDS011;39866;48.638;-2.020;2023-10-08T02:01:38;6.70;;;5.32;;
53959;SDS011;39866;48.638;-2.020;2023-10-08T02:04:05;5.22;;;4.72;;
53959;SDS011;39866;48.638;-2.020;2023-10-08T02:06:32;6.85;;;5.20;;
53959;SDS011;39866;48.638;-2.020;2023-10-08T02:08:58;7.03;;;5.18;;
53959;SDS011;39866;48.638;-2.020;2023-10-08T02:11:24;6.60;;;5.13;;
53959;SDS011;39866;48.638;-2.020;2023-10-08T02:13:49;7.85;;;5.50;;
53959;SDS011;39866;48.638;-2.020;2023-10-08T02:16:19;5.55;;;4.93;;
53959;SDS011;39866;48.638;-2.020;2023-10-08T02:18:47;6.82;;;5.32;;
53959;SDS011;39866;48.638;-2.020;2023-10-08T02:21:15;7.55;;;5.18;;
53959;SDS011;39866;48.638;-2.020;2023-10-08T02:23:40;8.10;;;5.25;;
53959;SDS011;39866;48.638;-2.020;2023-10-08T02:26:05;7.70;;;5.50;;
53959;SDS011;39866;48.638;-2.020;2023-10-08T02:28:31;8.23;;;5.10;;
53959;SDS011;39866;48.638;-2.020;2023-10-08T02:30:58;6.28;;;5.22;;
53959;SDS011;39866;48.638;-2.020;2023-10-08T02:33:25;6.82;;;5.30;;
53959;SDS011;39866;48.638;-2.020;2023-10-08T02:35:51;5.93;;;5.20;;
53959;SDS011;39866;48.638;-2.020;2023-10-08T02:38:18;7.22;;;5.00;;
53959;SDS011;39866;48.638;-2.020;2023-10-08T02:40:46;6.35;;;4.80;;
53959;SDS011;39866;48.638;-2.020;2023-10-08T02:43:13;7.30;;;4.95;;
53959;SDS011;39866;48.638;-2.020;2023-10-08T02:45:42;6.85;;;5.00;;
53959;SDS011;39866;48.638;-2.020;2023-10-08T02:48:12;5.28;;;4.50;;
53959;SDS011;39866;48.638;-2.020;2023-10-08T02:50:41;7.25;;;5.18;;
53959;SDS011;39866;48.638;-2.020;2023-10-08T02:53:07;6.30;;;4.82;;
53959;SDS011;39866;48.638;-2.020;2023-10-08T02:55:40;5.80;;;5.20;;
53959;SDS011;39866;48.638;-2.020;2023-10-08T02:58:12;7.18;;;5.25;;
53959;SDS011;39866;48.638;-2.020;2023-10-08T03:00:44;6.15;;;4.88;;
53959;SDS011;39866;48.638;-2.020;2023-10-08T03:03:12;6.78;;;5.25;;
53959;SDS011;39866;48.638;-2.020;2023-10-08T03:05:42;6.68;;;5.25;;
53959;SDS011;39866;48.638;-2.020;2023-10-08T03:08:09;7.50;;;5.22;;
53959;SDS011;39866;48.638;-2.020;2023-10-08T03:10:37;6.55;;;5.30;;
53959;SDS011;39866;48.638;-2.020;2023-10-08T03:13:02;6.22;;;5.30;;
53959;SDS011;39866;48.638;-2.020;2023-10-08T03:15:32;6.65;;;5.95;;
53959;SDS011;39866;48.638;-2.020;2023-10-08T03:20:41;7.60;;;5.77;;
53959;SDS011;39866;48.638;-2.020;2023-10-08T03:23:15;8.40;;;5.43;;
53959;SDS011;39866;48.638;-2.020;2023-10-08T03:25:54;6.60;;;5.45;;
53959;SDS011;39866;48.638;-2.020;2023-10-08T03:28:26;9.40;;;5.80;;
53959;SDS011;39866;48.638;-2.020;2023-10-08T03:30:53;7.57;;;5.85;;
53959;SDS011;39866;48.638;-2.020;2023-10-08T03:33:35;8.32;;;5.85;;
53959;SDS011;39866;48.638;-2.020;2023-10-08T03:36:06;7.93;;;6.03;;
53959;SDS011;39866;48.638;-2.020;2023-10-08T03:38:59;7.85;;;5.60;;
53959;SDS011;39866;48.638;-2.020;2023-10-08T03:41:34;7.93;;;6.28;;
53959;SDS011;39866;48.638;-2.020;2023-10-08T03:44:04;7.93;;;5.93;;
53959;SDS011;39866;48.638;-2.020;2023-10-08T03:46:31;7.80;;;6.13;;
53959;SDS011;39866;48.638;-2.020;2023-10-08T03:49:04;7.20;;;5.80;;
53959;SDS011;39866;48.638;-2.020;2023-10-08T03:51:41;7.43;;;5.65;;
53959;SDS011;39866;48.638;-2.020;2023-10-08T03:54:07;6.68;;;5.65;;
53959;SDS011;39866;48.638;-2.020;2023-10-08T03:56:32;6.57;;;5.68;;
53959;SDS011;39866;48.638;-2.020;2023-10-08T03:59:01;10.38;;;5.70;;
53959;SDS011;39866;48.638;-2.020;2023-10-08T04:01:38;7.07;;;6.00;;
53959;SDS011;39866;48.638;-2.020;2023-10-08T04:04:07;7.15;;;5.50;;
53959;SDS011;39866;48.638;-2.020;2023-10-08T04:06:39;6.70;;;5.90;;
53959;SDS011;39866;48.638;-2.020;2023-10-08T04:09:13;7.57;;;5.70;;
53959;SDS011;39866;48.638;-2.020;2023-10-08T04:11:45;6.22;;;5.43;;
53959;SDS011;39866;48.638;-2.020;2023-10-08T04:14:17;6.78;;;5.28;;
53959;SDS011;39866;48.638;-2.020;2023-10-08T04:16:43;7.60;;;5.80;;
53959;SDS011;39866;48.638;-2.020;2023-10-08T04:19:09;7.28;;;5.97;;
53959;SDS011;39866;48.638;-2.020;2023-10-08T04:21:35;7.90;;;5.93;;
53959;SDS011;39866;48.638;-2.020;2023-10-08T04:24:00;6.65;;;5.78;;
53959;SDS011;39866;48.638;-2.020;2023-10-08T04:26:29;8.05;;;5.57;;
53959;SDS011;39866;48.638;-2.020;2023-10-08T04:28:56;6.00;;;5.25;;
53959;SDS011;39866;48.638;-2.020;2023-10-08T04:31:22;7.40;;;5.40;;
53959;SDS011;39866;48.638;-2.020;2023-10-08T04:34:07;7.53;;;5.60;;
53959;SDS011;39866;48.638;-2.020;2023-10-08T04:36:44;7.00;;;5.40;;
53959;SDS011;39866;48.638;-2.020;2023-10-08T04:39:11;7.63;;;5.22;;
53959;SDS011;39866;48.638;-2.020;2023-10-08T04:41:46;7.10;;;5.57;;
53959;SDS011;39866;48.638;-2.020;2023-10-08T04:44:13;6.10;;;5.50;;
53959;SDS011;39866;48.638;-2.020;2023-10-08T04:46:40;9.85;;;6.28;;
53959;SDS011;39866;48.638;-2.020;2023-10-08T04:49:12;7.55;;;5.30;;
53959;SDS011;39866;48.638;-2.020;2023-10-08T04:51:55;7.65;;;4.97;;
53959;SDS011;39866;48.638;-2.020;2023-10-08T04:54:23;7.88;;;5.70;;
53959;SDS011;39866;48.638;-2.020;2023-10-08T04:56:55;6.53;;;5.03;;
53959;SDS011;39866;48.638;-2.020;2023-10-08T04:59:23;6.90;;;5.18;;
53959;SDS011;39866;48.638;-2.020;2023-10-08T05:01:57;7.68;;;5.30;;
53959;SDS011;39866;48.638;-2.020;2023-10-08T05:04:48;8.15;;;5.63;;
53959;SDS011;39866;48.638;-2.020;2023-10-08T05:07:18;7.32;;;5.70;;
53959;SDS011;39866;48.638;-2.020;2023-10-08T05:10:04;6.25;;;5.13;;
53959;SDS011;39866;48.638;-2.020;2023-10-08T05:12:32;6.47;;;5.35;;
53959;SDS011;39866;48.638;-2.020;2023-10-08T05:14:58;6.63;;;5.70;;
53959;SDS011;39866;48.638;-2.020;2023-10-08T05:17:45;7.78;;;5.43;;
53959;SDS011;39866;48.638;-2.020;2023-10-08T05:20:14;8.00;;;6.10;;
53959;SDS011;39866;48.638;-2.020;2023-10-08T05:23:00;7.45;;;5.88;;
53959;SDS011;39866;48.638;-2.020;2023-10-08T05:25:49;7.50;;;5.78;;
53959;SDS011;39866;48.638;-2.020;2023-10-08T05:28:50;8.65;;;6.22;;
53959;SDS011;39866;48.638;-2.020;2023-10-08T05:31:47;8.35;;;5.55;;
53959;SDS011;39866;48.638;-2.020;2023-10-08T05:34:18;7.35;;;5.78;;
53959;SDS011;39866;48.638;-2.020;2023-10-08T05:36:48;8.00;;;5.80;;
53959;SDS011;39866;48.638;-2.020;2023-10-08T05:39:36;7.80;;;6.15;;
53959;SDS011;39866;48.638;-2.020;2023-10-08T05:42:19;9.63;;;6.57;;
53959;SDS011;39866;48.638;-2.020;2023-10-08T05:44:53;10.10;;;6.90;;
53959;SDS011;39866;48.638;-2.020;2023-10-08T05:47:39;9.13;;;6.53;;
53959;SDS011;39866;48.638;-2.020;2023-10-08T05:50:06;9.18;;;6.88;;
53959;SDS011;39866;48.638;-2.020;2023-10-08T05:52:41;8.48;;;6.68;;
53959;SDS011;39866;48.638;-2.020;2023-10-08T05:55:22;11.10;;;6.90;;
53959;SDS011;39866;48.638;-2.020;2023-10-08T05:57:55;10.32;;;7.07;;
53959;SDS011;39866;48.638;-2.020;2023-10-08T06:00:38;9.77;;;6.25;;
53959;SDS011;39866;48.638;-2.020;2023-10-08T06:03:29;9.77;;;6.72;;
53959;SDS011;39866;48.638;-2.020;2023-10-08T06:06:04;12.07;;;7.10;;
53959;SDS011;39866;48.638;-2.020;2023-10-08T06:08:37;10.93;;;6.50;;
53959;SDS011;39866;48.638;-2.020;2023-10-08T06:11:20;9.18;;;6.38;;
53959;SDS011;39866;48.638;-2.020;2023-10-08T06:14:04;10.13;;;6.28;;
53959;SDS011;39866;48.638;-2.020;2023-10-08T06:16:38;9.27;;;6.53;;
53959;SDS011;39866;48.638;-2.020;2023-10-08T06:19:09;7.25;;;5.65;;
53959;SDS011;39866;48.638;-2.020;2023-10-08T06:21:36;7.10;;;5.63;;
53959;SDS011;39866;48.638;-2.020;2023-10-08T06:24:04;7.28;;;6.07;;
53959;SDS011;39866;48.638;-2.020;2023-10-08T06:26:34;8.10;;;6.13;;
53959;SDS011;39866;48.638;-2.020;2023-10-08T06:29:03;8.20;;;6.00;;
53959;SDS011;39866;48.638;-2.020;2023-10-08T06:31:43;7.40;;;5.88;;
53959;SDS011;39866;48.638;-2.020;2023-10-08T06:34:15;7.57;;;5.40;;
53959;SDS011;39866;48.638;-2.020;2023-10-08T06:36:41;7.30;;;5.35;;
53959;SDS011;39866;48.638;-2.020;2023-10-08T06:39:06;8.48;;;5.95;;
53959;SDS011;39866;48.638;-2.020;2023-10-08T06:41:36;8.15;;;5.55;;
53959;SDS011;39866;48.638;-2.020;2023-10-08T06:44:02;9.35;;;5.85;;
53959;SDS011;39866;48.638;-2.020;2023-10-08T06:46:28;7.95;;;5.40;;
53959;SDS011;39866;48.638;-2.020;2023-10-08T06:48:57;7.43;;;5.88;;
53959;SDS011;39866;48.638;-2.020;2023-10-08T06:51:23;7.03;;;5.80;;
53959;SDS011;39866;48.638;-2.020;2023-10-08T06:53:51;9.07;;;6.13;;
53959;SDS011;39866;48.638;-2.020;2023-10-08T06:56:18;6.65;;;5.68;;
53959;SDS011;39866;48.638;-2.020;2023-10-08T06:58:45;8.43;;;6.13;;
53959;SDS011;39866;48.638;-2.020;2023-10-08T07:01:18;7.50;;;5.85;;
53959;SDS011;39866;48.638;-2.020;2023-10-08T07:03:46;8.43;;;6.15;;
53959;SDS011;39866;48.638;-2.020;2023-10-08T07:06:15;7.60;;;6.20;;
53959;SDS011;39866;48.638;-2.020;2023-10-08T07:08:56;9.25;;;6.70;;
53959;SDS011;39866;48.638;-2.020;2023-10-08T07:11:24;9.02;;;6.75;;
53959;SDS011;39866;48.638;-2.020;2023-10-08T07:13:54;8.93;;;6.05;;
53959;SDS011;39866;48.638;-2.020;2023-10-08T07:16:20;7.03;;;5.68;;
53959;SDS011;39866;48.638;-2.020;2023-10-08T07:18:46;7.63;;;6.38;;
53959;SDS011;39866;48.638;-2.020;2023-10-08T07:21:18;7.95;;;6.18;;
53959;SDS011;39866;48.638;-2.020;2023-10-08T07:23:49;7.18;;;5.60;;
53959;SDS011;39866;48.638;-2.020;2023-10-08T07:26:21;8.23;;;6.05;;
53959;SDS011;39866;48.638;-2.020;2023-10-08T07:28:49;9.52;;;6.10;;
53959;SDS011;39866;48.638;-2.020;2023-10-08T07:31:19;8.50;;;6.65;;
53959;SDS011;39866;48.638;-2.020;2023-10-08T07:33:47;6.88;;;5.80;;
53959;SDS011;39866;48.638;-2.020;2023-10-08T07:36:24;6.95;;;5.55;;
53959;SDS011;39866;48.638;-2.020;2023-10-08T07:38:51;8.23;;;6.30;;
53959;SDS011;39866;48.638;-2.020;2023-10-08T07:41:18;8.30;;;5.90;;
53959;SDS011;39866;48.638;-2.020;2023-10-08T07:43:48;7.70;;;5.07;;
53959;SDS011;39866;48.638;-2.020;2023-10-08T07:46:23;8.20;;;6.00;;
53959;SDS011;39866;48.638;-2.020;2023-10-08T07:48:51;6.72;;;5.53;;
53959;SDS011;39866;48.638;-2.020;2023-10-08T07:51:17;6.40;;;5.40;;
53959;SDS011;39866;48.638;-2.020;2023-10-08T07:53:47;8.70;;;5.50;;
53959;SDS011;39866;48.638;-2.020;2023-10-08T07:56:13;6.85;;;5.43;;
53959;SDS011;39866;48.638;-2.020;2023-10-08T07:58:39;10.68;;;6.60;;
53959;SDS011;39866;48.638;-2.020;2023-10-08T08:01:07;7.80;;;5.53;;
53959;SDS011;39866;48.638;-2.020;2023-10-08T08:03:34;6.00;;;5.38;;
53959;SDS011;39866;48.638;-2.020;2023-10-08T08:06:02;9.10;;;5.88;;
53959;SDS011;39866;48.638;-2.020;2023-10-08T08:08:31;7.57;;;5.28;;
53959;SDS011;39866;48.638;-2.020;2023-10-08T08:10:58;7.45;;;5.45;;
53959;SDS011;39866;48.638;-2.020;2023-10-08T08:13:29;6.78;;;5.60;;
53959;SDS011;39866;48.638;-2.020;2023-10-08T08:15:55;8.15;;;5.13;;
53959;SDS011;39866;48.638;-2.020;2023-10-08T08:18:23;8.43;;;5.25;;
53959;SDS011;39866;48.638;-2.020;2023-10-08T08:20:50;7.82;;;5.20;;
53959;SDS011;39866;48.638;-2.020;2023-10-08T08:23:15;6.63;;;5.10;;
53959;SDS011;39866;48.638;-2.020;2023-10-08T08:25:41;8.73;;;6.22;;
53959;SDS011;39866;48.638;-2.020;2023-10-08T08:28:26;9.55;;;5.70;;
53959;SDS011;39866;48.638;-2.020;2023-10-08T08:30:54;6.78;;;5.20;;
53959;SDS011;39866;48.638;-2.020;2023-10-08T08:33:20;7.20;;;5.70;;
53959;SDS011;39866;48.638;-2.020;2023-10-08T08:36:01;9.60;;;5.70;;
53959;SDS011;39866;48.638;-2.020;2023-10-08T08:38:28;8.32;;;5.45;;
53959;SDS011;39866;48.638;-2.020;2023-10-08T08:41:06;5.80;;;4.57;;
53959;SDS011;39866;48.638;-2.020;2023-10-08T08:43:35;6.53;;;5.00;;
53959;SDS011;39866;48.638;-2.020;2023-10-08T08:46:04;7.63;;;4.72;;
53959;SDS011;39866;48.638;-2.020;2023-10-08T08:48:35;6.13;;;5.30;;
53959;SDS011;39866;48.638;-2.020;2023-10-08T08:51:03;7.05;;;4.97;;
53959;SDS011;39866;48.638;-2.020;2023-10-08T08:53:31;7.78;;;5.07;;
53959;SDS011;39866;48.638;-2.020;2023-10-08T08:56:01;6.95;;;4.93;;
53959;SDS011;39866;48.638;-2.020;2023-10-08T08:58:30;6.95;;;4.80;;
53959;SDS011;39866;48.638;-2.020;2023-10-08T09:00:59;7.15;;;5.30;;
53959;SDS011;39866;48.638;-2.020;2023-10-08T09:03:25;7.20;;;4.90;;
53959;SDS011;39866;48.638;-2.020;2023-10-08T09:05:56;7.57;;;5.05;;
53959;SDS011;39866;48.638;-2.020;2023-10-08T09:08:22;7.00;;;4.80;;
53959;SDS011;39866;48.638;-2.020;2023-10-08T09:10:49;5.75;;;4.43;;
53959;SDS011;39866;48.638;-2.020;2023-10-08T09:13:19;5.43;;;4.35;;
53959;SDS011;39866;48.638;-2.020;2023-10-08T09:15:49;6.93;;;4.90;;
53959;SDS011;39866;48.638;-2.020;2023-10-08T09:18:15;5.68;;;4.78;;
53959;SDS011;39866;48.638;-2.020;2023-10-08T09:20:40;5.20;;;4.50;;
53959;SDS011;39866;48.638;-2.020;2023-10-08T09:23:15;7.43;;;4.95;;
53959;SDS011;39866;48.638;-2.020;2023-10-08T09:25:45;6.13;;;4.50;;
53959;SDS011;39866;48.638;-2.020;2023-10-08T09:28:27;5.72;;;4.20;;
53959;SDS011;39866;48.638;-2.020;2023-10-08T09:30:54;9.02;;;5.28;;
53959;SDS011;39866;48.638;-2.020;2023-10-08T09:33:23;7.80;;;4.60;;
53959;SDS011;39866;48.638;-2.020;2023-10-08T09:35:49;7.43;;;4.88;;
53959;SDS011;39866;48.638;-2.020;2023-10-08T09:38:20;8.55;;;4.70;;
53959;SDS011;39866;48.638;-2.020;2023-10-08T09:40:48;6.35;;;4.97;;
53959;SDS011;39866;48.638;-2.020;2023-10-08T09:43:15;7.78;;;5.15;;
53959;SDS011;39866;48.638;-2.020;2023-10-08T09:45:50;7.15;;;4.97;;
53959;SDS011;39866;48.638;-2.020;2023-10-08T09:48:18;7.30;;;4.68;;
53959;SDS011;39866;48.638;-2.020;2023-10-08T09:50:47;8.75;;;5.35;;
53959;SDS011;39866;48.638;-2.020;2023-10-08T09:53:16;7.43;;;5.20;;
53959;SDS011;39866;48.638;-2.020;2023-10-08T09:55:54;7.25;;;4.95;;
53959;SDS011;39866;48.638;-2.020;2023-10-08T09:58:21;7.53;;;5.35;;
53959;SDS011;39866;48.638;-2.020;2023-10-08T10:00:50;10.10;;;4.97;;
53959;SDS011;39866;48.638;-2.020;2023-10-08T10:03:17;7.57;;;5.00;;
53959;SDS011;39866;48.638;-2.020;2023-10-08T10:05:48;5.88;;;4.72;;
53959;SDS011;39866;48.638;-2.020;2023-10-08T10:08:17;6.88;;;5.15;;
53959;SDS011;39866;48.638;-2.020;2023-10-08T10:10:45;7.00;;;4.90;;
53959;SDS011;39866;48.638;-2.020;2023-10-08T10:13:12;7.43;;;5.10;;
53959;SDS011;39866;48.638;-2.020;2023-10-08T10:15:39;6.03;;;4.60;;
53959;SDS011;39866;48.638;-2.020;2023-10-08T10:20:53;6.82;;;5.00;;
53959;SDS011;39866;48.638;-2.020;2023-10-08T10:26:01;9.57;;;5.13;;
53959;SDS011;39866;48.638;-2.020;2023-10-08T10:28:27;6.68;;;4.57;;
53959;SDS011;39866;48.638;-2.020;2023-10-08T10:30:53;8.40;;;5.00;;
53959;SDS011;39866;48.638;-2.020;2023-10-08T10:33:19;7.75;;;5.05;;
53959;SDS011;39866;48.638;-2.020;2023-10-08T10:35:50;6.72;;;4.68;;
53959;SDS011;39866;48.638;-2.020;2023-10-08T10:38:18;8.30;;;4.78;;
53959;SDS011;39866;48.638;-2.020;2023-10-08T10:40:49;7.82;;;5.07;;
53959;SDS011;39866;48.638;-2.020;2023-10-08T10:43:23;6.30;;;4.88;;
53959;SDS011;39866;48.638;-2.020;2023-10-08T10:45:57;5.65;;;4.60;;
53959;SDS011;39866;48.638;-2.020;2023-10-08T10:48:24;7.50;;;4.78;;
53959;SDS011;39866;48.638;-2.020;2023-10-08T10:50:59;6.57;;;4.68;;
53959;SDS011;39866;48.638;-2.020;2023-10-08T10:53:39;5.75;;;4.60;;
53959;SDS011;39866;48.638;-2.020;2023-10-08T10:56:26;7.28;;;4.90;;
53959;SDS011;39866;48.638;-2.020;2023-10-08T10:58:58;6.78;;;4.72;;
53959;SDS011;39866;48.638;-2.020;2023-10-08T11:01:31;8.45;;;4.85;;
53959;SDS011;39866;48.638;-2.020;2023-10-08T11:04:09;6.90;;;4.57;;
53959;SDS011;39866;48.638;-2.020;2023-10-08T11:06:40;6.43;;;4.80;;
53959;SDS011;39866;48.638;-2.020;2023-10-08T11:09:10;5.93;;;4.90;;
53959;SDS011;39866;48.638;-2.020;2023-10-08T11:11:40;6.50;;;4.70;;
53959;SDS011;39866;48.638;-2.020;2023-10-08T11:14:10;7.40;;;4.43;;
53959;SDS011;39866;48.638;-2.020;2023-10-08T11:16:43;6.90;;;5.07;;
53959;SDS011;39866;48.638;-2.020;2023-10-08T11:19:10;6.35;;;4.35;;
53959;SDS011;39866;48.638;-2.020;2023-10-08T11:21:51;9.02;;;4.60;;
53959;SDS011;39866;48.638;-2.020;2023-10-08T11:27:01;5.88;;;4.80;;
53959;SDS011;39866;48.638;-2.020;2023-10-08T11:29:46;5.38;;;4.40;;
53959;SDS011;39866;48.638;-2.020;2023-10-08T11:32:13;6.50;;;4.50;;
53959;SDS011;39866;48.638;-2.020;2023-10-08T11:34:47;6.38;;;4.55;;
53959;SDS011;39866;48.638;-2.020;2023-10-08T11:37:15;5.78;;;4.20;;
53959;SDS011;39866;48.638;-2.020;2023-10-08T11:39:54;6.05;;;4.72;;
53959;SDS011;39866;48.638;-2.020;2023-10-08T11:42:23;6.47;;;4.47;;
53959;SDS011;39866;48.638;-2.020;2023-10-08T11:44:57;7.20;;;4.68;;
53959;SDS011;39866;48.638;-2.020;2023-10-08T11:47:45;6.55;;;4.57;;
53959;SDS011;39866;48.638;-2.020;2023-10-08T11:50:13;5.43;;;4.38;;
53959;SDS011;39866;48.638;-2.020;2023-10-08T11:52:44;8.95;;;4.63;;
53959;SDS011;39866;48.638;-2.020;2023-10-08T11:55:09;7.68;;;4.97;;
53959;SDS011;39866;48.638;-2.020;2023-10-08T11:57:43;7.32;;;4.47;;
53959;SDS011;39866;48.638;-2.020;2023-10-08T12:00:14;7.50;;;4.40;;
53959;SDS011;39866;48.638;-2.020;2023-10-08T12:02:49;6.82;;;4.50;;
53959;SDS011;39866;48.638;-2.020;2023-10-08T12:05:17;5.95;;;4.40;;
53959;SDS011;39866;48.638;-2.020;2023-10-08T12:07:48;7.03;;;4.10;;
53959;SDS011;39866;48.638;-2.020;2023-10-08T12:10:17;5.65;;;4.20;;
53959;SDS011;39866;48.638;-2.020;2023-10-08T12:12:49;6.22;;;4.35;;
53959;SDS011;39866;48.638;-2.020;2023-10-08T12:15:20;8.00;;;4.20;;
53959;SDS011;39866;48.638;-2.020;2023-10-08T12:17:47;5.43;;;3.67;;
53959;SDS011;39866;48.638;-2.020;2023-10-08T12:20:36;5.72;;;4.30;;
53959;SDS011;39866;48.638;-2.020;2023-10-08T12:23:03;6.63;;;4.43;;
53959;SDS011;39866;48.638;-2.020;2023-10-08T12:25:30;6.72;;;4.00;;
53959;SDS011;39866;48.638;-2.020;2023-10-08T12:27:57;6.32;;;4.22;;
53959;SDS011;39866;48.638;-2.020;2023-10-08T12:30:29;5.72;;;4.18;;
53959;SDS011;39866;48.638;-2.020;2023-10-08T12:33:00;5.65;;;4.20;;
53959;SDS011;39866;48.638;-2.020;2023-10-08T12:35:26;6.13;;;3.92;;
53959;SDS011;39866;48.638;-2.020;2023-10-08T12:37:54;5.55;;;4.03;;
53959;SDS011;39866;48.638;-2.020;2023-10-08T12:40:19;6.38;;;4.43;;
53959;SDS011;39866;48.638;-2.020;2023-10-08T12:45:16;5.68;;;4.40;;
53959;SDS011;39866;48.638;-2.020;2023-10-08T12:47:51;6.38;;;4.25;;
53959;SDS011;39866;48.638;-2.020;2023-10-08T12:50:18;7.15;;;4.47;;
53959;SDS011;39866;48.638;-2.020;2023-10-08T12:52:54;6.03;;;4.50;;
53959;SDS011;39866;48.638;-2.020;2023-10-08T12:55:20;6.82;;;4.47;;
53959;SDS011;39866;48.638;-2.020;2023-10-08T12:57:50;5.80;;;4.25;;
53959;SDS011;39866;48.638;-2.020;2023-10-08T13:00:20;6.07;;;4.05;;
53959;SDS011;39866;48.638;-2.020;2023-10-08T13:02:49;5.72;;;4.30;;
53959;SDS011;39866;48.638;-2.020;2023-10-08T13:05:21;9.30;;;4.75;;
53959;SDS011;39866;48.638;-2.020;2023-10-08T13:07:55;5.38;;;4.00;;
53959;SDS011;39866;48.638;-2.020;2023-10-08T13:10:22;11.23;;;5.95;;
53959;SDS011;39866;48.638;-2.020;2023-10-08T13:12:49;8.98;;;6.03;;
53959;SDS011;39866;48.638;-2.020;2023-10-08T13:15:15;10.60;;;5.55;;
53959;SDS011;39866;48.638;-2.020;2023-10-08T13:17:40;9.48;;;5.95;;
53959;SDS011;39866;48.638;-2.020;2023-10-08T13:20:08;10.32;;;6.15;;
53959;SDS011;39866;48.638;-2.020;2023-10-08T13:22:37;10.68;;;6.10;;
53959;SDS011;39866;48.638;-2.020;2023-10-08T13:25:03;10.15;;;5.85;;
53959;SDS011;39866;48.638;-2.020;2023-10-08T13:27:29;7.55;;;5.07;;
53959;SDS011;39866;48.638;-2.020;2023-10-08T13:29:55;12.32;;;5.65;;
53959;SDS011;39866;48.638;-2.020;2023-10-08T13:32:21;13.13;;;6.32;;
53959;SDS011;39866;48.638;-2.020;2023-10-08T13:34:46;15.20;;;6.25;;
53959;SDS011;39866;48.638;-2.020;2023-10-08T13:37:12;10.90;;;5.88;;
53959;SDS011;39866;48.638;-2.020;2023-10-08T13:39:39;10.02;;;5.55;;
53959;SDS011;39866;48.638;-2.020;2023-10-08T13:42:05;7.75;;;5.32;;
53959;SDS011;39866;48.638;-2.020;2023-10-08T13:44:31;8.18;;;5.50;;
53959;SDS011;39866;48.638;-2.020;2023-10-08T13:46:56;8.82;;;5.57;;
53959;SDS011;39866;48.638;-2.020;2023-10-08T13:49:23;7.07;;;5.43;;
53959;SDS011;39866;48.638;-2.020;2023-10-08T13:51:51;7.93;;;5.43;;
53959;SDS011;39866;48.638;-2.020;2023-10-08T13:54:21;8.30;;;5.43;;
53959;SDS011;39866;48.638;-2.020;2023-10-08T13:56:47;10.10;;;5.30;;
53959;SDS011;39866;48.638;-2.020;2023-10-08T13:59:13;8.70;;;5.78;;
53959;SDS011;39866;48.638;-2.020;2023-10-08T14:01:40;9.60;;;5.35;;
53959;SDS011;39866;48.638;-2.020;2023-10-08T14:04:08;9.07;;;5.45;;
53959;SDS011;39866;48.638;-2.020;2023-10-08T14:06:37;8.38;;;5.72;;
53959;SDS011;39866;48.638;-2.020;2023-10-08T14:09:07;11.50;;;5.27;;
53959;SDS011;39866;48.638;-2.020;2023-10-08T14:11:34;8.98;;;5.38;;
53959;SDS011;39866;48.638;-2.020;2023-10-08T14:14:00;10.57;;;5.38;;
53959;SDS011;39866;48.638;-2.020;2023-10-08T14:16:32;11.38;;;5.22;;
53959;SDS011;39866;48.638;-2.020;2023-10-08T14:18:59;8.75;;;5.00;;
53959;SDS011;39866;48.638;-2.020;2023-10-08T14:21:25;8.35;;;5.03;;
53959;SDS011;39866;48.638;-2.020;2023-10-08T14:23:55;7.47;;;4.95;;
53959;SDS011;39866;48.638;-2.020;2023-10-08T14:26:27;8.75;;;4.78;;
53959;SDS011;39866;48.638;-2.020;2023-10-08T14:29:00;7.32;;;4.10;;
53959;SDS011;39866;48.638;-2.020;2023-10-08T14:31:32;8.52;;;4.97;;
53959;SDS011;39866;48.638;-2.020;2023-10-08T14:33:58;10.70;;;5.10;;
53959;SDS011;39866;48.638;-2.020;2023-10-08T14:36:45;6.03;;;4.07;;
53959;SDS011;39866;48.638;-2.020;2023-10-08T14:39:33;8.25;;;4.88;;
53959;SDS011;39866;48.638;-2.020;2023-10-08T14:42:17;10.90;;;4.93;;
53959;SDS011;39866;48.638;-2.020;2023-10-08T14:45:02;9.60;;;4.85;;
53959;SDS011;39866;48.638;-2.020;2023-10-08T14:47:28;8.82;;;5.05;;
53959;SDS011;39866;48.638;-2.020;2023-10-08T14:49:54;8.25;;;4.93;;
53959;SDS011;39866;48.638;-2.020;2023-10-08T14:52:19;8.30;;;5.10;;
53959;SDS011;39866;48.638;-2.020;2023-10-08T14:54:45;8.40;;;4.80;;
53959;SDS011;39866;48.638;-2.020;2023-10-08T14:57:11;7.45;;;4.55;;
53959;SDS011;39866;48.638;-2.020;2023-10-08T14:59:39;8.65;;;4.70;;
53959;SDS011;39866;48.638;-2.020;2023-10-08T15:02:08;9.13;;;4.88;;
53959;SDS011;39866;48.638;-2.020;2023-10-08T15:04:35;10.55;;;4.63;;
53959;SDS011;39866;48.638;-2.020;2023-10-08T15:07:04;7.90;;;4.63;;
53959;SDS011;39866;48.638;-2.020;2023-10-08T15:09:43;9.88;;;5.28;;